Pagina principale
METAR-TAF:

METAR-TAF

Aeroporti :

Aeroporto militare

Meppen, Germania

latitudine: 52-43-24N, longitudine: 007-19-35E, altezza: 21 m

Osservazione

Il bollettino è stato emesso 54 minuti fa, alle 06:20 UTC
Vento 4 kt da nord
Temperature 6°C
Umidità 93%
Pressione 1005 hPa
Visibilità: 3100 m
Nuvoloso ad un'altezza di 200 ft
Nuvoloso ad un'altezza di 600 ft
pioviggine debole, pioggia, foschia

METAR: ETWM 180620Z 36004KT 3100 -DZRA BR BKN002 BKN006 06/05 Q1005 AMB

Ora: 08:14 (07:14 UTC)


TAF: mancante

Osservazioni e previsioni meteorologiche di più di 4000 aeroporti (messaggi METAR e TAF).

Le stazioni disponibili sono rappresentate dai dischi gialli e rossi sulla carta.

Puntare il mouse per vedere il nome della stazione.

Clicca sopra per visualizzare le osservazioni e previsioni meteorologiche.

Per cambiare la mappa : fare clic sui pulsanti verdi con una croce nera per ingrandire, il pulsante verde con un trattino per diminuire, o sulla freccia verde per le mappe adiacenti.


METAR-TAF: